Orto / Ocaso: 07:19 / 17:00 UTC (Datos para LEAX 12-12-2019)

[fuente: ADDS]

METAR:


LEMG 121100Z 30018KT 9999 FEW040 13/04 Q1026 NOSIG =
TAF LEMG 120500Z 1206/1306 29018KT CAVOK TX18/1214Z TN10/1207Z PROB30 TEMPO 1206/1216 30020G30KT BECMG 1216/1218 30008KT LEGR 121100Z 00000KT 9999 SCT035 07/04 Q1027 =
TAF LEGR 120800Z 1209/1309 VRB02KT CAVOK TX16/1215Z TN02/1209Z TEMPO 1214/1216 30010KT BECMG 1222/1224 30010KT PROB40 TEMPO 1300/1309 4000 RA BR BKN012 LEZL 121100Z 22006KT 190V250 9999 FEW038 13/07 Q1028 NOSIG =
TAF LEZL 120800Z 1209/1309 VRB03KT CAVOK TX19/1215Z TN08/1209Z BECMG 1210/1212 28010KT LEAM 121100Z 31008KT CAVOK 16/01 Q1022 =
TAF LEAM 120800Z 1209/1309 34012KT 9999 SCT010 TX20/1215Z TN11/1306Z TEMPO 1210/1214 VRB04KT PROB40 TEMPO 1216/1219 29020G35KT BECMG 1219/1221 VRB03KT LEBA 121100Z 25004KT 210V300 CAVOK 10/05 Q1028 =
TAF LEBA 120800Z 1209/1218 VRB03KT CAVOK BECMG 1210/1212 26010KT LEJR 121100Z 31009KT 280V350 CAVOK 14/08 Q1029 =
TAF LEJR 120500Z 1206/1306 35005KT CAVOK TX15/1215Z TN04/1206Z BECMG 1210/1212 28012KT GEML 121100Z 26022G38KT 210V300 9999 FEW020 16/06 Q1024 =
TAF GEML 120800Z 1209/1309 27020G30KT CAVOK TX18/1215Z TN18/1306Z PROB40 TEMPO 1209/1224 27025G40KT PROB40 TEMPO 1300/1306 27030G50KT LXGB 121050Z 28016KT CAVOK 14/06 Q1028 NOSIG RMK BLU BLU =
TAF LXGB 121038Z 1212/1221 27015KT 9999 FEW025 TEMPO 1212/1218 28015G25KT PROB30 TEMPO 1220/1221 SCT020

TAFOR:


TAF LEMG 120500Z 1206/1306 29018KT CAVOK TX18/1214Z TN10/1207Z PROB30 TEMPO 1206/1216 30020G30KT BECMG 1216/1218 30008KT =
TAF LEGR 120800Z 1209/1309 VRB02KT CAVOK TX16/1215Z TN02/1209Z TEMPO 1214/1216 30010KT BECMG 1222/1224 30010KT PROB40 TEMPO 1300/1309 4000 RA BR BKN012 =
TAF LEZL 120800Z 1209/1309 VRB03KT CAVOK TX19/1215Z TN08/1209Z BECMG 1210/1212 28010KT =
TAF LEAM 120800Z 1209/1309 34012KT 9999 SCT010 TX20/1215Z TN11/1306Z TEMPO 1210/1214 VRB04KT PROB40 TEMPO 1216/1219 29020G35KT BECMG 1219/1221 VRB03KT =
TAF LEBA 120800Z 1209/1218 VRB03KT CAVOK BECMG 1210/1212 26010KT =
TAF LEJR 120500Z 1206/1306 35005KT CAVOK TX15/1215Z TN04/1206Z BECMG 1210/1212 28012KT =
TAF GEML 120800Z 1209/1309 27020G30KT CAVOK TX18/1215Z TN18/1306Z PROB40 TEMPO 1209/1224 27025G40KT PROB40 TEMPO 1300/1306 27030G50KT =
TAF LXGB 121038Z 1212/1221 27015KT 9999 FEW025 TEMPO 1212/1218 28015G25KT PROB30 TEMPO 1220/1221 SCT020 =

Recuerde que, aunque regularmente actualizada, la información meteorológica aquí presentada no debe ser utilizada para la planificación de vuelos. Si lo desea, puede consultar la información meteorológica adecuada, tanto de aeródromos como en ruta, por las vías oficialmente establecidas en la legislación -> AQUí

Utilizamos "cookies" propias y de terceros para analizar nuestros servicios, medir las audiencias, personalizar el contenido que ofrecemos y mostrar información adaptada a sus intereses mediante la obtención de los datos necesarios para perfilar sus hábitos de navegación e inferir grupos de interés, siempre de modo anónimo. Si continúa utilizando el sitio web AEROCLUBMALAGA.COM, significa que acepta sus términos y condiciones y el uso de "cookies" al utilizar el sitio web y nuestros servicios. Asimismo, podemos utilizar fuentes de datos externas para elaborar estos grupos de interés, así compartir los análisis de navegación y los grupos de interés inferidos con terceros con el objetivo de personalizar los contenidos. Para obtener más información sobre las cookies que utilizamos y cómo eliminarlas, consulte nuestra política de privacidad.

Acepto las cookies de esta página web.
EU Cookie Directive plugin by www.channeldigital.co.uk